Aviation Digital Data Service (ADDS)

Output produced by METARs form (1912 UTC 18 April 2019)
found at http://www.aviationweather.gov/metar/data/
 
METAR text: LQMO 181900Z 10009KT 9999 FEW050 16/01 Q1023
Conditions at: LQMO (MOSTAR AIRPORT , BA) observed 1900 UTC 18 April 2019
Temperature: 16.0°C (61°F)
Dewpoint: 1.0°C (34°F) [RH = 36%]
Pressure (altimeter): 30.21 inches Hg (1023.0 mb)
Winds: from the E (100 degrees) at 10 MPH (9 knots; 4.6 m/s)
Visibility: 6 or more miles (10+ km)
Ceiling: at least 12,000 feet AGL
Clouds: few clouds at 5000 feet AGL
Weather: no significant weather observed at this time

METAR text: LQMO 181830Z 07007KT 9999 FEW050 16/01 Q1023
Conditions at: LQMO (MOSTAR AIRPORT , BA) observed 1830 UTC 18 April 2019
Temperature: 16.0°C (61°F)
Dewpoint: 1.0°C (34°F) [RH = 36%]
Pressure (altimeter): 30.21 inches Hg (1023.0 mb)
Winds: from the ENE (70 degrees) at 8 MPH (7 knots; 3.6 m/s)
Visibility: 6 or more miles (10+ km)
Ceiling: at least 12,000 feet AGL
Clouds: few clouds at 5000 feet AGL
Weather: no significant weather observed at this time

METAR text: LQMO 181800Z 06007KT 020V100 9999 FEW050 18/M00 Q1022
Conditions at: LQMO (MOSTAR AIRPORT , BA) observed 1800 UTC 18 April 2019
Temperature: 18.0°C (64°F)
Dewpoint: 0.0°C (32°F) [RH = 30%]
Pressure (altimeter): 30.18 inches Hg (1022.0 mb)
Winds: from the ENE (60 degrees) at 8 MPH (7 knots; 3.6 m/s)
Visibility: 6 or more miles (10+ km)
Ceiling: at least 12,000 feet AGL
Clouds: few clouds at 5000 feet AGL
Weather: no significant weather observed at this time

METAR text: LQMO 181700Z 08013KT 9999 FEW050 19/00 Q1021
Conditions at: LQMO (MOSTAR AIRPORT , BA) observed 1700 UTC 18 April 2019
Temperature: 19.0°C (66°F)
Dewpoint: 0.0°C (32°F) [RH = 28%]
Pressure (altimeter): 30.15 inches Hg (1021.0 mb)
Winds: from the E (80 degrees) at 15 MPH (13 knots; 6.7 m/s)
Visibility: 6 or more miles (10+ km)
Ceiling: at least 12,000 feet AGL
Clouds: few clouds at 5000 feet AGL
Weather: no significant weather observed at this time

METAR text: LQMO 181600Z 05008KT 9999 FEW050 19/01 Q1021
Conditions at: LQMO (MOSTAR AIRPORT , BA) observed 1600 UTC 18 April 2019
Temperature: 19.0°C (66°F)
Dewpoint: 1.0°C (34°F) [RH = 30%]
Pressure (altimeter): 30.15 inches Hg (1021.0 mb)
Winds: from the NE (50 degrees) at 9 MPH (8 knots; 4.1 m/s)
Visibility: 6 or more miles (10+ km)
Ceiling: at least 12,000 feet AGL
Clouds: few clouds at 5000 feet AGL
Weather: no significant weather observed at this time

METAR text: LQMO 181500Z 05015KT 9999 FEW050 19/01 Q1021
Conditions at: LQMO (MOSTAR AIRPORT , BA) observed 1500 UTC 18 April 2019
Temperature: 19.0°C (66°F)
Dewpoint: 1.0°C (34°F) [RH = 30%]
Pressure (altimeter): 30.15 inches Hg (1021.0 mb)
Winds: from the NE (50 degrees) at 17 MPH (15 knots; 7.7 m/s)
Visibility: 6 or more miles (10+ km)
Ceiling: at least 12,000 feet AGL
Clouds: few clouds at 5000 feet AGL
Weather: no significant weather observed at this time

METAR text: LQMO 181400Z 05013KT 9999 FEW050 SCT090 20/01 Q1021
Conditions at: LQMO (MOSTAR AIRPORT , BA) observed 1400 UTC 18 April 2019
Temperature: 20.0°C (68°F)
Dewpoint: 1.0°C (34°F) [RH = 28%]
Pressure (altimeter): 30.15 inches Hg (1021.0 mb)
Winds: from the NE (50 degrees) at 15 MPH (13 knots; 6.7 m/s)
Visibility: 6 or more miles (10+ km)
Ceiling: at least 12,000 feet AGL
Clouds: few clouds at 5000 feet AGL
scattered clouds at 9000 feet AGL
Weather: no significant weather observed at this time

METAR text: LQMO 181300Z 35009KT 300V040 9999 FEW060 SCT094 19/01 Q1021
Conditions at: LQMO (MOSTAR AIRPORT , BA) observed 1300 UTC 18 April 2019
Temperature: 19.0°C (66°F)
Dewpoint: 1.0°C (34°F) [RH = 30%]
Pressure (altimeter): 30.15 inches Hg (1021.0 mb)
Winds: from the N (350 degrees) at 10 MPH (9 knots; 4.6 m/s)
Visibility: 6 or more miles (10+ km)
Ceiling: at least 12,000 feet AGL
Clouds: few clouds at 6000 feet AGL
scattered clouds at 9400 feet AGL
Weather: no significant weather observed at this time

METAR text: LQMO 181200Z 04011KT 010V090 9999 FEW050 SCT082 19/00 Q1021
Conditions at: LQMO (MOSTAR AIRPORT , BA) observed 1200 UTC 18 April 2019
Temperature: 19.0°C (66°F)
Dewpoint: 0.0°C (32°F) [RH = 28%]
Pressure (altimeter): 30.15 inches Hg (1021.0 mb)
Winds: from the NE (40 degrees) at 13 MPH (11 knots; 5.7 m/s)
Visibility: 6 or more miles (10+ km)
Ceiling: at least 12,000 feet AGL
Clouds: few clouds at 5000 feet AGL
scattered clouds at 8200 feet AGL
Weather: no significant weather observed at this time

METAR text: LQMO 181100Z VRB06KT 9999 FEW050 BKN078 19/01 Q1021
Conditions at: LQMO (MOSTAR AIRPORT , BA) observed 1100 UTC 18 April 2019
Temperature: 19.0°C (66°F)
Dewpoint: 1.0°C (34°F) [RH = 30%]
Pressure (altimeter): 30.15 inches Hg (1021.0 mb)
Winds: variable direction winds at 7 MPH (6 knots; 3.1 m/s)
Visibility: 6 or more miles (10+ km)
Ceiling: 7800 feet AGL
Clouds: few clouds at 5000 feet AGL
broken clouds at 7800 feet AGL
Weather: no significant weather observed at this time

METAR text: LQMO 181000Z VRB05KT 9999 FEW050 SCT086 19/01 Q1021
Conditions at: LQMO (MOSTAR AIRPORT , BA) observed 1000 UTC 18 April 2019
Temperature: 19.0°C (66°F)
Dewpoint: 1.0°C (34°F) [RH = 30%]
Pressure (altimeter): 30.15 inches Hg (1021.0 mb)
Winds: variable direction winds at 6 MPH (5 knots; 2.6 m/s)
Visibility: 6 or more miles (10+ km)
Ceiling: at least 12,000 feet AGL
Clouds: few clouds at 5000 feet AGL
scattered clouds at 8600 feet AGL
Weather: no significant weather observed at this time

METAR text: LQMO 180900Z 33008KT 280V040 9999 SCT060 19/02 Q1020
Conditions at: LQMO (MOSTAR AIRPORT , BA) observed 0900 UTC 18 April 2019
Temperature: 19.0°C (66°F)
Dewpoint: 2.0°C (36°F) [RH = 32%]
Pressure (altimeter): 30.12 inches Hg (1020.0 mb)
Winds: from the NNW (330 degrees) at 9 MPH (8 knots; 4.1 m/s)
Visibility: 6 or more miles (10+ km)
Ceiling: at least 12,000 feet AGL
Clouds: scattered clouds at 6000 feet AGL
Weather: no significant weather observed at this time

METAR text: LQMO 180800Z 34014KT 300V030 9999 FEW050 18/03 Q1020
Conditions at: LQMO (MOSTAR AIRPORT , BA) observed 0800 UTC 18 April 2019
Temperature: 18.0°C (64°F)
Dewpoint: 3.0°C (37°F) [RH = 37%]
Pressure (altimeter): 30.12 inches Hg (1020.0 mb)
Winds: from the NNW (340 degrees) at 16 MPH (14 knots; 7.2 m/s)
Visibility: 6 or more miles (10+ km)
Ceiling: at least 12,000 feet AGL
Clouds: few clouds at 5000 feet AGL
Weather: no significant weather observed at this time

METAR text: LQMO 180700Z 18004KT 140V300 9999 FEW045 15/03 Q1021
Conditions at: LQMO (MOSTAR AIRPORT , BA) observed 0700 UTC 18 April 2019
Temperature: 15.0°C (59°F)
Dewpoint: 3.0°C (37°F) [RH = 44%]
Pressure (altimeter): 30.15 inches Hg (1021.0 mb)
Winds: from the S (180 degrees) at 5 MPH (4 knots; 2.1 m/s)
Visibility: 6 or more miles (10+ km)
Ceiling: at least 12,000 feet AGL
Clouds: few clouds at 4500 feet AGL
Weather: no significant weather observed at this time

METAR text: LQMO 180600Z 11003KT 080V160 9999 FEW045 11/03 Q1020
Conditions at: LQMO (MOSTAR AIRPORT , BA) observed 0600 UTC 18 April 2019
Temperature: 11.0°C (52°F)
Dewpoint: 3.0°C (37°F) [RH = 58%]
Pressure (altimeter): 30.12 inches Hg (1020.0 mb)
Winds: from the ESE (110 degrees) at 3 MPH (3 knots; 1.5 m/s)
Visibility: 6 or more miles (10+ km)
Ceiling: at least 12,000 feet AGL
Clouds: few clouds at 4500 feet AGL
Weather: no significant weather observed at this time

METAR text: LQMO 180500Z 15006KT 100V170 9999 FEW045 11/02 Q1020
Conditions at: LQMO (MOSTAR AIRPORT , BA) observed 0500 UTC 18 April 2019
Temperature: 11.0°C (52°F)
Dewpoint: 2.0°C (36°F) [RH = 54%]
Pressure (altimeter): 30.12 inches Hg (1020.0 mb)
Winds: from the SSE (150 degrees) at 7 MPH (6 knots; 3.1 m/s)
Visibility: 6 or more miles (10+ km)
Ceiling: at least 12,000 feet AGL
Clouds: few clouds at 4500 feet AGL
Weather: no significant weather observed at this time

METAR text: LQMO 180400Z 05006KT 330V130 9999 FEW045 09/01 Q1020
Conditions at: LQMO (MOSTAR AIRPORT , BA) observed 0400 UTC 18 April 2019
Temperature: 9.0°C (48°F)
Dewpoint: 1.0°C (34°F) [RH = 57%]
Pressure (altimeter): 30.12 inches Hg (1020.0 mb)
Winds: from the NE (50 degrees) at 7 MPH (6 knots; 3.1 m/s)
Visibility: 6 or more miles (10+ km)
Ceiling: at least 12,000 feet AGL
Clouds: few clouds at 4500 feet AGL
Weather: no significant weather observed at this time

METAR text: LQMO 180300Z VRB05KT 9999 FEW045 12/01 Q1019
Conditions at: LQMO (MOSTAR AIRPORT , BA) observed 0300 UTC 18 April 2019
Temperature: 12.0°C (54°F)
Dewpoint: 1.0°C (34°F) [RH = 47%]
Pressure (altimeter): 30.09 inches Hg (1019.0 mb)
Winds: variable direction winds at 6 MPH (5 knots; 2.6 m/s)
Visibility: 6 or more miles (10+ km)
Ceiling: at least 12,000 feet AGL
Clouds: few clouds at 4500 feet AGL
Weather: no significant weather observed at this time

METAR text: LQMO 180200Z 13005KT 100V170 9999 FEW045 13/00 Q1019
Conditions at: LQMO (MOSTAR AIRPORT , BA) observed 0200 UTC 18 April 2019
Temperature: 13.0°C (55°F)
Dewpoint: 0.0°C (32°F) [RH = 41%]
Pressure (altimeter): 30.09 inches Hg (1019.0 mb)
Winds: from the SE (130 degrees) at 6 MPH (5 knots; 2.6 m/s)
Visibility: 6 or more miles (10+ km)
Ceiling: at least 12,000 feet AGL
Clouds: few clouds at 4500 feet AGL
Weather: no significant weather observed at this time

METAR text: LQMO 180100Z 08003KT 040V110 CAVOK 13/M01 Q1019
Conditions at: LQMO (MOSTAR AIRPORT , BA) observed 0100 UTC 18 April 2019
Temperature: 13.0°C (55°F)
Dewpoint: -1.0°C (30°F) [RH = 38%]
Pressure (altimeter): 30.09 inches Hg (1019.0 mb)
Winds: from the E (80 degrees) at 3 MPH (3 knots; 1.5 m/s)
Visibility: 6 or more miles (10+ km)
Ceiling: ceiling and visibility are OK
Clouds: unknown
Weather: no significant weather observed at this time

METAR text: LQMO 180000Z 30004KT 270V010 CAVOK 15/M01 Q1019
Conditions at: LQMO (MOSTAR AIRPORT , BA) observed 0000 UTC 18 April 2019
Temperature: 15.0°C (59°F)
Dewpoint: -1.0°C (30°F) [RH = 33%]
Pressure (altimeter): 30.09 inches Hg (1019.0 mb)
Winds: from the WNW (300 degrees) at 5 MPH (4 knots; 2.1 m/s)
Visibility: 6 or more miles (10+ km)
Ceiling: ceiling and visibility are OK
Clouds: unknown
Weather: no significant weather observed at this time

METAR text: LQMO 172300Z VRB07G17KT CAVOK 15/M01 Q1019
Conditions at: LQMO (MOSTAR AIRPORT , BA) observed 2300 UTC 17 April 2019
Temperature: 15.0°C (59°F)
Dewpoint: -1.0°C (30°F) [RH = 33%]
Pressure (altimeter): 30.09 inches Hg (1019.0 mb)
Winds: variable direction winds at 8 MPH (7 knots; 3.6 m/s)
gusting to 20 MPH (17 knots; 8.7 m/s)
Visibility: 6 or more miles (10+ km)
Ceiling: ceiling and visibility are OK
Clouds: unknown
Weather: no significant weather observed at this time

METAR text: LQMO 172200Z VRB04KT CAVOK 16/M01 Q1019
Conditions at: LQMO (MOSTAR AIRPORT , BA) observed 2200 UTC 17 April 2019
Temperature: 16.0°C (61°F)
Dewpoint: -1.0°C (30°F) [RH = 31%]
Pressure (altimeter): 30.09 inches Hg (1019.0 mb)
Winds: variable direction winds at 5 MPH (4 knots; 2.1 m/s)
Visibility: 6 or more miles (10+ km)
Ceiling: ceiling and visibility are OK
Clouds: unknown
Weather: no significant weather observed at this time

METAR text: LQMO 172100Z 06007KT 330V130 CAVOK 17/M01 Q1018
Conditions at: LQMO (MOSTAR AIRPORT , BA) observed 2100 UTC 17 April 2019
Temperature: 17.0°C (63°F)
Dewpoint: -1.0°C (30°F) [RH = 29%]
Pressure (altimeter): 30.06 inches Hg (1018.0 mb)
Winds: from the ENE (60 degrees) at 8 MPH (7 knots; 3.6 m/s)
Visibility: 6 or more miles (10+ km)
Ceiling: ceiling and visibility are OK
Clouds: unknown
Weather: no significant weather observed at this time

METAR text: LQMO 172000Z 03006KT 350V060 CAVOK 17/M02 Q1018
Conditions at: LQMO (MOSTAR AIRPORT , BA) observed 2000 UTC 17 April 2019
Temperature: 17.0°C (63°F)
Dewpoint: -2.0°C (28°F) [RH = 27%]
Pressure (altimeter): 30.06 inches Hg (1018.0 mb)
Winds: from the NNE (30 degrees) at 7 MPH (6 knots; 3.1 m/s)
Visibility: 6 or more miles (10+ km)
Ceiling: ceiling and visibility are OK
Clouds: unknown
Weather: no significant weather observed at this time

METAR text: LQMO 171900Z 04011KT 360V070 9999 FEW085 18/M03 Q1017
Conditions at: LQMO (MOSTAR AIRPORT , BA) observed 1900 UTC 17 April 2019
Temperature: 18.0°C (64°F)
Dewpoint: -3.0°C (27°F) [RH = 24%]
Pressure (altimeter): 30.03 inches Hg (1017.0 mb)
Winds: from the NE (40 degrees) at 13 MPH (11 knots; 5.7 m/s)
Visibility: 6 or more miles (10+ km)
Ceiling: at least 12,000 feet AGL
Clouds: few clouds at 8500 feet AGL
Weather: no significant weather observed at this time

METAR text: LQMO 171800Z 33006KT 290V360 9999 FEW050 18/M04 Q1016
Conditions at: LQMO (MOSTAR AIRPORT , BA) observed 1800 UTC 17 April 2019
Temperature: 18.0°C (64°F)
Dewpoint: -4.0°C (25°F) [RH = 22%]
Pressure (altimeter): 30.00 inches Hg (1016.0 mb)
Winds: from the NNW (330 degrees) at 7 MPH (6 knots; 3.1 m/s)
Visibility: 6 or more miles (10+ km)
Ceiling: at least 12,000 feet AGL
Clouds: few clouds at 5000 feet AGL
Weather: no significant weather observed at this time

METAR text: LQMO 171700Z 03007KT 9999 FEW050 20/M02 Q1015
Conditions at: LQMO (MOSTAR AIRPORT , BA) observed 1700 UTC 17 April 2019
Temperature: 20.0°C (68°F)
Dewpoint: -2.0°C (28°F) [RH = 23%]
Pressure (altimeter): 29.97 inches Hg (1015.0 mb)
Winds: from the NNE (30 degrees) at 8 MPH (7 knots; 3.6 m/s)
Visibility: 6 or more miles (10+ km)
Ceiling: at least 12,000 feet AGL
Clouds: few clouds at 5000 feet AGL
Weather: no significant weather observed at this time

METAR text: LQMO 171600Z 01011KT 340V050 9999 FEW050 21/M02 Q1015
Conditions at: LQMO (MOSTAR AIRPORT , BA) observed 1600 UTC 17 April 2019
Temperature: 21.0°C (70°F)
Dewpoint: -2.0°C (28°F) [RH = 21%]
Pressure (altimeter): 29.97 inches Hg (1015.0 mb)
Winds: from the N (10 degrees) at 13 MPH (11 knots; 5.7 m/s)
Visibility: 6 or more miles (10+ km)
Ceiling: at least 12,000 feet AGL
Clouds: few clouds at 5000 feet AGL
Weather: no significant weather observed at this time

METAR text: LQMO 171500Z 34009KT 9999 FEW050 21/M03 Q1014
Conditions at: LQMO (MOSTAR AIRPORT , BA) observed 1500 UTC 17 April 2019
Temperature: 21.0°C (70°F)
Dewpoint: -3.0°C (27°F) [RH = 20%]
Pressure (altimeter): 29.94 inches Hg (1014.0 mb)
Winds: from the NNW (340 degrees) at 10 MPH (9 knots; 4.6 m/s)
Visibility: 6 or more miles (10+ km)
Ceiling: at least 12,000 feet AGL
Clouds: few clouds at 5000 feet AGL
Weather: no significant weather observed at this time

METAR text: LQMO 171400Z 34011KT 320V020 9999 FEW050 22/M05 Q1014
Conditions at: LQMO (MOSTAR AIRPORT , BA) observed 1400 UTC 17 April 2019
Temperature: 22.0°C (72°F)
Dewpoint: -5.0°C (23°F) [RH = 16%]
Pressure (altimeter): 29.94 inches Hg (1014.0 mb)
Winds: from the NNW (340 degrees) at 13 MPH (11 knots; 5.7 m/s)
Visibility: 6 or more miles (10+ km)
Ceiling: at least 12,000 feet AGL
Clouds: few clouds at 5000 feet AGL
Weather: no significant weather observed at this time

METAR text: LQMO 171300Z 34012KT 9999 FEW050 23/M06 Q1015
Conditions at: LQMO (MOSTAR AIRPORT , BA) observed 1300 UTC 17 April 2019
Temperature: 23.0°C (73°F)
Dewpoint: -6.0°C (21°F) [RH = 14%]
Pressure (altimeter): 29.97 inches Hg (1015.0 mb)
Winds: from the NNW (340 degrees) at 14 MPH (12 knots; 6.2 m/s)
Visibility: 6 or more miles (10+ km)
Ceiling: at least 12,000 feet AGL
Clouds: few clouds at 5000 feet AGL
Weather: no significant weather observed at this time

METAR text: LQMO 171200Z 33011KT 310V010 9999 FEW050 22/M05 Q1015
Conditions at: LQMO (MOSTAR AIRPORT , BA) observed 1200 UTC 17 April 2019
Temperature: 22.0°C (72°F)
Dewpoint: -5.0°C (23°F) [RH = 16%]
Pressure (altimeter): 29.97 inches Hg (1015.0 mb)
Winds: from the NNW (330 degrees) at 13 MPH (11 knots; 5.7 m/s)
Visibility: 6 or more miles (10+ km)
Ceiling: at least 12,000 feet AGL
Clouds: few clouds at 5000 feet AGL
Weather: no significant weather observed at this time

METAR text: LQMO 171100Z 32012KT 9999 FEW050 21/M04 Q1016
Conditions at: LQMO (MOSTAR AIRPORT , BA) observed 1100 UTC 17 April 2019
Temperature: 21.0°C (70°F)
Dewpoint: -4.0°C (25°F) [RH = 18%]
Pressure (altimeter): 30.00 inches Hg (1016.0 mb)
Winds: from the NW (320 degrees) at 14 MPH (12 knots; 6.2 m/s)
Visibility: 6 or more miles (10+ km)
Ceiling: at least 12,000 feet AGL
Clouds: few clouds at 5000 feet AGL
Weather: no significant weather observed at this time

METAR text: LQMO 171000Z VRB04KT 9999 FEW050 20/M02 Q1016
Conditions at: LQMO (MOSTAR AIRPORT , BA) observed 1000 UTC 17 April 2019
Temperature: 20.0°C (68°F)
Dewpoint: -2.0°C (28°F) [RH = 23%]
Pressure (altimeter): 30.00 inches Hg (1016.0 mb)
Winds: variable direction winds at 5 MPH (4 knots; 2.1 m/s)
Visibility: 6 or more miles (10+ km)
Ceiling: at least 12,000 feet AGL
Clouds: few clouds at 5000 feet AGL
Weather: no significant weather observed at this time

METAR text: LQMO 170900Z VRB03KT CAVOK 18/02 Q1017
Conditions at: LQMO (MOSTAR AIRPORT , BA) observed 0900 UTC 17 April 2019
Temperature: 18.0°C (64°F)
Dewpoint: 2.0°C (36°F) [RH = 34%]
Pressure (altimeter): 30.03 inches Hg (1017.0 mb)
Winds: variable direction winds at 3 MPH (3 knots; 1.5 m/s)
Visibility: 6 or more miles (10+ km)
Ceiling: ceiling and visibility are OK
Clouds: unknown
Weather: no significant weather observed at this time

METAR text: LQMO 170800Z VRB02KT CAVOK 15/05 Q1017
Conditions at: LQMO (MOSTAR AIRPORT , BA) observed 0800 UTC 17 April 2019
Temperature: 15.0°C (59°F)
Dewpoint: 5.0°C (41°F) [RH = 51%]
Pressure (altimeter): 30.03 inches Hg (1017.0 mb)
Winds: variable direction winds at 2 MPH (2 knots; 1.0 m/s)
Visibility: 6 or more miles (10+ km)
Ceiling: ceiling and visibility are OK
Clouds: unknown
Weather: no significant weather observed at this time

Forecast for: LQMO (MOSTAR AIRPORT , BA)
Text: TAF LQMO 181700Z 1818/1918 33007KT CAVOK TX23/1913Z TN08/1904Z
Forecast period: 1800 UTC 18 April 2019 to 1800 UTC 19 April 2019
Forecast type: FROM: standard forecast or significant change
Winds: from the NNW (330 degrees) at 8 MPH (7 knots; 3.6 m/s)
Visibility: 6 or more miles 10+ km)
Ceiling: unknown
Clouds: missing
Weather: no significant weather forecast for this period
Text: TEMPO 1818/1918 03015KT
Forecast period: 1800 UTC 18 April 2019 to 1800 UTC 19 April 2019
Forecast type: TEMPORARY: The following changes expected for less than half the time period
Winds: from the NNE (30 degrees) at 17 MPH (15 knots; 7.7 m/s)
Visibility: missing
Ceiling: unknown
Clouds: missing
Weather: no significant weather forecast for this period
Text: PROB30
Forecast period: 1500 to 1800 UTC 19 April 2019
Forecast type: TEMPORARY: The following changes expected for less than half the time period
Winds: from the NNE (20 degrees) at 17 MPH (15 knots; 7.7 m/s)
gusting to 29 MPH (25 knots; 12.9 m/s)
Visibility: missing
Ceiling: unknown
Clouds: missing
Weather: no significant weather forecast for this period